sensor_id;sensor_type;location;lat;lon;timestamp;pressure;altitude;pressure_sealevel;temperature;humidity
15674;BME280;7937;48.090;16.212;2023-05-08T00:01:52;98140.03;;;4.88;73.15
15674;BME280;7937;48.090;16.212;2023-05-08T00:04:54;98340.13;;;6.18;73.93
15674;BME280;7937;48.090;16.212;2023-05-08T00:07:57;98234.84;;;5.52;73.50
15674;BME280;7937;48.090;16.212;2023-05-08T00:11:02;98359.69;;;6.24;73.60
15674;BME280;7937;48.090;16.212;2023-05-08T00:14:04;98282.56;;;5.85;74.10
15674;BME280;7937;48.090;16.212;2023-05-08T00:17:06;98262.78;;;5.75;72.44
15674;BME280;7937;48.090;16.212;2023-05-08T00:20:09;97982.78;;;4.03;72.27
15674;BME280;7937;48.090;16.212;2023-05-08T00:23:12;98104.81;;;4.74;72.98
15674;BME280;7937;48.090;16.212;2023-05-08T00:26:14;98337.47;;;6.18;72.40
15674;BME280;7937;48.090;16.212;2023-05-08T00:29:16;98135.59;;;5.02;71.53
15674;BME280;7937;48.090;16.212;2023-05-08T00:32:18;98400.53;;;6.62;71.70
15674;BME280;7937;48.090;16.212;2023-05-08T00:35:21;98373.34;;;6.27;71.61
15674;BME280;7937;48.090;16.212;2023-05-08T00:38:23;98309.09;;;5.92;71.63
15674;BME280;7937;48.090;16.212;2023-05-08T00:41:25;98026.56;;;4.25;70.81
15674;BME280;7937;48.090;16.212;2023-05-08T00:44:28;98363.56;;;6.28;71.27
15674;BME280;7937;48.090;16.212;2023-05-08T00:47:30;98357.00;;;6.17;71.63
15674;BME280;7937;48.090;16.212;2023-05-08T00:50:34;98299.00;;;5.81;71.58
15674;BME280;7937;48.090;16.212;2023-05-08T00:53:38;98367.81;;;6.22;70.94
15674;BME280;7937;48.090;16.212;2023-05-08T00:56:42;98296.69;;;5.64;70.77
15674;BME280;7937;48.090;16.212;2023-05-08T00:59:44;98345.94;;;6.00;70.90
15674;BME280;7937;48.090;16.212;2023-05-08T01:02:48;98297.34;;;5.66;70.91
15674;BME280;7937;48.090;16.212;2023-05-08T01:05:50;98269.13;;;5.46;71.35
15674;BME280;7937;48.090;16.212;2023-05-08T01:08:52;98070.66;;;4.10;71.13
15674;BME280;7937;48.090;16.212;2023-05-08T01:15:20;98414.06;;;6.33;70.82
15674;BME280;7937;48.090;16.212;2023-05-08T01:18:35;98318.03;;;5.63;70.84
15674;BME280;7937;48.090;16.212;2023-05-08T01:21:55;98316.19;;;5.57;72.02
15674;BME280;7937;48.090;16.212;2023-05-08T01:35:08;98410.97;;;6.23;71.83
15674;BME280;7937;48.090;16.212;2023-05-08T01:38:45;98344.53;;;5.76;71.66
15674;BME280;7937;48.090;16.212;2023-05-08T01:45:35;98466.28;;;6.17;71.65
15674;BME280;7937;48.090;16.212;2023-05-08T01:48:48;98351.06;;;5.80;71.70
15674;BME280;7937;48.090;16.212;2023-05-08T01:52:02;98411.94;;;6.15;72.39
15674;BME280;7937;48.090;16.212;2023-05-08T01:55:13;98265.69;;;5.17;72.65
15674;BME280;7937;48.090;16.212;2023-05-08T01:58:17;98247.31;;;5.02;72.17
15674;BME280;7937;48.090;16.212;2023-05-08T02:01:22;98409.03;;;6.10;72.33
15674;BME280;7937;48.090;16.212;2023-05-08T02:04:26;98421.91;;;6.13;72.11
15674;BME280;7937;48.090;16.212;2023-05-08T02:07:29;98389.75;;;5.81;72.25
15674;BME280;7937;48.090;16.212;2023-05-08T02:10:32;98335.31;;;5.59;72.35
15674;BME280;7937;48.090;16.212;2023-05-08T02:13:36;98378.28;;;5.74;72.68
15674;BME280;7937;48.090;16.212;2023-05-08T02:16:40;98301.03;;;5.37;72.76
15674;BME280;7937;48.090;16.212;2023-05-08T02:19:44;98327.03;;;5.40;72.35
15674;BME280;7937;48.090;16.212;2023-05-08T02:22:49;98171.88;;;4.58;71.74
15674;BME280;7937;48.090;16.212;2023-05-08T02:25:53;98208.06;;;4.64;71.61
15674;BME280;7937;48.090;16.212;2023-05-08T02:28:56;98386.44;;;5.73;71.33
15674;BME280;7937;48.090;16.212;2023-05-08T02:32:01;98249.44;;;4.85;71.70
15674;BME280;7937;48.090;16.212;2023-05-08T02:35:04;98325.38;;;5.33;72.12
15674;BME280;7937;48.090;16.212;2023-05-08T02:38:08;98390.09;;;5.72;72.14
15674;BME280;7937;48.090;16.212;2023-05-08T02:41:12;98379.66;;;5.63;72.36
15674;BME280;7937;48.090;16.212;2023-05-08T02:44:17;98332.84;;;5.29;72.11
15674;BME280;7937;48.090;16.212;2023-05-08T02:47:26;98307.16;;;5.16;72.25
15674;BME280;7937;48.090;16.212;2023-05-08T02:51:08;98428.72;;;6.01;72.68
15674;BME280;7937;48.090;16.212;2023-05-08T02:54:09;98422.81;;;5.99;72.59
15674;BME280;7937;48.090;16.212;2023-05-08T03:00:36;98422.63;;;6.00;72.70
15674;BME280;7937;48.090;16.212;2023-05-08T03:03:47;98343.06;;;5.32;72.24
15674;BME280;7937;48.090;16.212;2023-05-08T03:06:53;98392.72;;;5.72;72.15
15674;BME280;7937;48.090;16.212;2023-05-08T03:10:04;98231.88;;;4.50;71.48
15674;BME280;7937;48.090;16.212;2023-05-08T03:13:09;98182.91;;;4.40;71.85
15674;BME280;7937;48.090;16.212;2023-05-08T03:16:21;98383.19;;;5.49;71.96
15674;BME280;7937;48.090;16.212;2023-05-08T03:19:30;98443.13;;;5.91;72.26
15674;BME280;7937;48.090;16.212;2023-05-08T03:22:38;98394.88;;;5.61;72.81
15674;BME280;7937;48.090;16.212;2023-05-08T03:25:43;98182.34;;;4.24;71.88
15674;BME280;7937;48.090;16.212;2023-05-08T03:28:50;98433.50;;;5.90;72.14
15674;BME280;7937;48.090;16.212;2023-05-08T03:31:59;98432.28;;;5.86;71.96
15674;BME280;7937;48.090;16.212;2023-05-08T03:35:02;98366.06;;;5.38;72.77
15674;BME280;7937;48.090;16.212;2023-05-08T03:38:06;98391.75;;;5.51;72.38
15674;BME280;7937;48.090;16.212;2023-05-08T03:41:10;98433.56;;;5.69;72.68
15674;BME280;7937;48.090;16.212;2023-05-08T03:44:13;98403.28;;;5.43;73.42
15674;BME280;7937;48.090;16.212;2023-05-08T03:47:16;98437.34;;;5.81;72.63
15674;BME280;7937;48.090;16.212;2023-05-08T03:50:19;98345.25;;;5.07;72.70
15674;BME280;7937;48.090;16.212;2023-05-08T03:53:21;98444.41;;;5.81;72.44
15674;BME280;7937;48.090;16.212;2023-05-08T03:56:24;98087.03;;;3.41;71.98
15674;BME280;7937;48.090;16.212;2023-05-08T03:59:42;98465.97;;;5.78;72.35
15674;BME280;7937;48.090;16.212;2023-05-08T04:02:56;98308.78;;;4.89;72.50
15674;BME280;7937;48.090;16.212;2023-05-08T04:06:23;98434.88;;;5.80;72.13
15674;BME280;7937;48.090;16.212;2023-05-08T04:09:56;98442.66;;;5.88;72.03
15674;BME280;7937;48.090;16.212;2023-05-08T04:13:24;98337.97;;;5.09;72.15
15674;BME280;7937;48.090;16.212;2023-05-08T04:16:34;98453.03;;;5.89;71.65
15674;BME280;7937;48.090;16.212;2023-05-08T04:19:44;98281.13;;;4.64;71.40
15674;BME280;7937;48.090;16.212;2023-05-08T04:22:49;98331.81;;;4.81;72.13
15674;BME280;7937;48.090;16.212;2023-05-08T04:25:53;98410.97;;;5.38;72.32
15674;BME280;7937;48.090;16.212;2023-05-08T04:28:57;98442.41;;;5.55;72.18
15674;BME280;7937;48.090;16.212;2023-05-08T04:31:59;98202.34;;;4.18;72.28
15674;BME280;7937;48.090;16.212;2023-05-08T04:35:03;98424.72;;;5.55;71.65
15674;BME280;7937;48.090;16.212;2023-05-08T04:38:05;98426.66;;;5.47;71.80
15674;BME280;7937;48.090;16.212;2023-05-08T04:41:08;98359.09;;;5.09;71.59
15674;BME280;7937;48.090;16.212;2023-05-08T04:44:10;98433.41;;;5.49;72.65
15674;BME280;7937;48.090;16.212;2023-05-08T04:47:13;98114.97;;;3.57;72.10
15674;BME280;7937;48.090;16.212;2023-05-08T04:50:16;98319.06;;;4.84;71.98
15674;BME280;7937;48.090;16.212;2023-05-08T04:53:18;98499.47;;;5.92;71.65
15674;BME280;7937;48.090;16.212;2023-05-08T04:56:21;98389.84;;;5.38;71.53
15674;BME280;7937;48.090;16.212;2023-05-08T04:59:23;98214.16;;;4.22;71.85
15674;BME280;7937;48.090;16.212;2023-05-08T05:02:26;98431.81;;;5.55;71.61
15674;BME280;7937;48.090;16.212;2023-05-08T05:05:29;98441.69;;;5.67;71.71
15674;BME280;7937;48.090;16.212;2023-05-08T05:08:32;98206.94;;;4.09;71.66
15674;BME280;7937;48.090;16.212;2023-05-08T05:11:35;98438.66;;;5.70;71.03
15674;BME280;7937;48.090;16.212;2023-05-08T05:14:37;98389.34;;;5.28;71.43
15674;BME280;7937;48.090;16.212;2023-05-08T05:17:39;98535.59;;;6.06;71.30
15674;BME280;7937;48.090;16.212;2023-05-08T05:20:42;98460.22;;;5.67;71.31
15674;BME280;7937;48.090;16.212;2023-05-08T05:23:44;98415.69;;;5.43;71.47
15674;BME280;7937;48.090;16.212;2023-05-08T05:26:47;98503.88;;;6.06;70.91
15674;BME280;7937;48.090;16.212;2023-05-08T05:29:50;98431.63;;;5.56;70.98
15674;BME280;7937;48.090;16.212;2023-05-08T05:32:52;98242.59;;;4.27;70.66
15674;BME280;7937;48.090;16.212;2023-05-08T05:35:54;98479.03;;;5.58;71.04
15674;BME280;7937;48.090;16.212;2023-05-08T05:38:57;98239.78;;;4.28;71.60
15674;BME280;7937;48.090;16.212;2023-05-08T05:41:59;98227.44;;;4.29;71.79
15674;BME280;7937;48.090;16.212;2023-05-08T05:45:02;98246.50;;;4.09;71.40
15674;BME280;7937;48.090;16.212;2023-05-08T05:48:05;98481.28;;;5.82;71.16
15674;BME280;7937;48.090;16.212;2023-05-08T05:51:08;98527.66;;;6.06;71.96
15674;BME280;7937;48.090;16.212;2023-05-08T05:54:10;98511.59;;;6.08;71.42
15674;BME280;7937;48.090;16.212;2023-05-08T05:57:13;98370.97;;;5.20;71.97
15674;BME280;7937;48.090;16.212;2023-05-08T06:00:16;98416.09;;;5.47;71.67
15674;BME280;7937;48.090;16.212;2023-05-08T06:03:23;98323.22;;;4.94;71.45
15674;BME280;7937;48.090;16.212;2023-05-08T06:06:25;98549.78;;;6.27;71.49
15674;BME280;7937;48.090;16.212;2023-05-08T06:09:27;98530.50;;;6.33;72.18
15674;BME280;7937;48.090;16.212;2023-05-08T06:12:29;98474.91;;;5.98;71.59
15674;BME280;7937;48.090;16.212;2023-05-08T06:15:33;98532.22;;;6.47;72.01
15674;BME280;7937;48.090;16.212;2023-05-08T06:18:36;98286.63;;;4.90;71.25
15674;BME280;7937;48.090;16.212;2023-05-08T06:21:38;98546.06;;;6.49;69.90
15674;BME280;7937;48.090;16.212;2023-05-08T06:24:40;98278.59;;;4.77;70.72
15674;BME280;7937;48.090;16.212;2023-05-08T06:27:42;98531.06;;;6.56;70.74
15674;BME280;7937;48.090;16.212;2023-05-08T06:30:44;98434.72;;;5.88;71.39
15674;BME280;7937;48.090;16.212;2023-05-08T06:33:47;98358.38;;;5.72;68.91
15674;BME280;7937;48.090;16.212;2023-05-08T06:36:49;98453.09;;;6.24;67.58
15674;BME280;7937;48.090;16.212;2023-05-08T06:39:51;98518.75;;;6.83;68.44
15674;BME280;7937;48.090;16.212;2023-05-08T06:43:12;98434.41;;;6.32;68.70
15674;BME280;7937;48.090;16.212;2023-05-08T06:46:14;98438.09;;;6.38;69.35
15674;BME280;7937;48.090;16.212;2023-05-08T06:49:17;98492.84;;;6.79;68.40
15674;BME280;7937;48.090;16.212;2023-05-08T06:52:19;98491.66;;;6.81;67.74
15674;BME280;7937;48.090;16.212;2023-05-08T06:55:22;98534.78;;;7.16;67.43
15674;BME280;7937;48.090;16.212;2023-05-08T06:58:24;98537.06;;;7.19;67.57
15674;BME280;7937;48.090;16.212;2023-05-08T07:01:29;98400.25;;;6.37;67.99
15674;BME280;7937;48.090;16.212;2023-05-08T07:04:31;98481.38;;;7.13;67.31
15674;BME280;7937;48.090;16.212;2023-05-08T07:07:33;98473.44;;;7.19;66.26
15674;BME280;7937;48.090;16.212;2023-05-08T07:10:35;98420.59;;;6.91;65.09
15674;BME280;7937;48.090;16.212;2023-05-08T07:13:37;98446.00;;;6.72;67.02
15674;BME280;7937;48.090;16.212;2023-05-08T07:16:39;98535.06;;;7.48;66.84
15674;BME280;7937;48.090;16.212;2023-05-08T07:19:42;98465.84;;;7.03;65.96
15674;BME280;7937;48.090;16.212;2023-05-08T07:22:44;98436.44;;;6.71;67.66
15674;BME280;7937;48.090;16.212;2023-05-08T07:25:47;98466.28;;;7.00;67.70
15674;BME280;7937;48.090;16.212;2023-05-08T07:28:49;98547.94;;;7.44;65.32
15674;BME280;7937;48.090;16.212;2023-05-08T07:31:54;98472.59;;;7.12;65.26
15674;BME280;7937;48.090;16.212;2023-05-08T07:34:57;98534.88;;;7.49;65.49
15674;BME280;7937;48.090;16.212;2023-05-08T07:37:59;98547.97;;;7.78;64.94
15674;BME280;7937;48.090;16.212;2023-05-08T07:41:01;98542.88;;;7.83;64.65
15674;BME280;7937;48.090;16.212;2023-05-08T07:44:03;98426.75;;;7.12;63.71
15674;BME280;7937;48.090;16.212;2023-05-08T07:47:05;98559.22;;;8.06;64.10
15674;BME280;7937;48.090;16.212;2023-05-08T07:50:08;98552.09;;;7.93;62.92
15674;BME280;7937;48.090;16.212;2023-05-08T07:53:10;98404.31;;;7.01;63.82
15674;BME280;7937;48.090;16.212;2023-05-08T07:56:12;98465.56;;;7.66;64.36
15674;BME280;7937;48.090;16.212;2023-05-08T07:59:14;98449.66;;;7.79;62.59
15674;BME280;7937;48.090;16.212;2023-05-08T08:02:16;98529.00;;;8.27;62.63
15674;BME280;7937;48.090;16.212;2023-05-08T08:05:18;98494.72;;;8.06;62.41
15674;BME280;7937;48.090;16.212;2023-05-08T08:08:20;98494.53;;;8.00;62.63
15674;BME280;7937;48.090;16.212;2023-05-08T08:11:22;98418.00;;;7.91;62.40
15674;BME280;7937;48.090;16.212;2023-05-08T08:14:24;98514.84;;;8.73;61.82
15674;BME280;7937;48.090;16.212;2023-05-08T08:17:26;98365.34;;;7.88;60.38
15674;BME280;7937;48.090;16.212;2023-05-08T08:20:29;98492.78;;;8.66;61.85
15674;BME280;7937;48.090;16.212;2023-05-08T08:23:32;98524.91;;;8.58;62.72
15674;BME280;7937;48.090;16.212;2023-05-08T08:26:34;98489.84;;;8.09;63.87
15674;BME280;7937;48.090;16.212;2023-05-08T08:29:36;98543.91;;;8.28;62.99
15674;BME280;7937;48.090;16.212;2023-05-08T08:32:38;98527.78;;;8.36;64.71
15674;BME280;7937;48.090;16.212;2023-05-08T08:35:40;98352.97;;;7.29;63.07
15674;BME280;7937;48.090;16.212;2023-05-08T08:38:42;98529.84;;;8.27;62.96
15674;BME280;7937;48.090;16.212;2023-05-08T08:41:44;98541.47;;;8.46;64.33
15674;BME280;7937;48.090;16.212;2023-05-08T08:44:46;98554.69;;;8.66;62.75
15674;BME280;7937;48.090;16.212;2023-05-08T08:47:51;98522.66;;;8.35;63.55
15674;BME280;7937;48.090;16.212;2023-05-08T08:50:58;98448.97;;;8.17;61.95
15674;BME280;7937;48.090;16.212;2023-05-08T08:54:09;98460.59;;;8.42;63.08
15674;BME280;7937;48.090;16.212;2023-05-08T08:57:13;98543.00;;;8.87;62.21
15674;BME280;7937;48.090;16.212;2023-05-08T09:00:16;98470.75;;;8.59;63.34
15674;BME280;7937;48.090;16.212;2023-05-08T09:03:20;98492.34;;;8.82;60.82
15674;BME280;7937;48.090;16.212;2023-05-08T09:06:22;98526.22;;;8.93;60.91
15674;BME280;7937;48.090;16.212;2023-05-08T09:09:24;98521.25;;;9.10;60.44
15674;BME280;7937;48.090;16.212;2023-05-08T09:12:27;98471.91;;;8.76;59.63
15674;BME280;7937;48.090;16.212;2023-05-08T09:15:30;98548.03;;;9.09;60.58
15674;BME280;7937;48.090;16.212;2023-05-08T09:18:33;98290.38;;;7.47;60.21
15674;BME280;7937;48.090;16.212;2023-05-08T09:21:35;98493.75;;;8.85;62.42
15674;BME280;7937;48.090;16.212;2023-05-08T09:24:57;98516.91;;;9.16;60.19
15674;BME280;7937;48.090;16.212;2023-05-08T09:28:23;98457.41;;;8.78;60.64
15674;BME280;7937;48.090;16.212;2023-05-08T09:31:37;98484.69;;;8.99;60.05
15674;BME280;7937;48.090;16.212;2023-05-08T09:34:51;98398.91;;;8.40;60.65
15674;BME280;7937;48.090;16.212;2023-05-08T09:37:53;98522.94;;;9.43;59.61
15674;BME280;7937;48.090;16.212;2023-05-08T09:41:14;98447.22;;;9.14;57.99
15674;BME280;7937;48.090;16.212;2023-05-08T09:44:17;98536.47;;;9.98;60.04
15674;BME280;7937;48.090;16.212;2023-05-08T09:47:22;98541.97;;;10.28;58.76
15674;BME280;7937;48.090;16.212;2023-05-08T09:50:25;98545.41;;;10.35;58.74
15674;BME280;7937;48.090;16.212;2023-05-08T09:53:31;98510.16;;;10.08;59.02
15674;BME280;7937;48.090;16.212;2023-05-08T09:56:37;98533.31;;;10.57;59.45
15674;BME280;7937;48.090;16.212;2023-05-08T09:59:40;98481.78;;;10.27;58.50
15674;BME280;7937;48.090;16.212;2023-05-08T10:03:02;98326.41;;;9.35;59.61
15674;BME280;7937;48.090;16.212;2023-05-08T10:06:12;98487.41;;;10.37;57.71
15674;BME280;7937;48.090;16.212;2023-05-08T10:09:15;98414.69;;;9.93;57.71
15674;BME280;7937;48.090;16.212;2023-05-08T10:12:17;98522.06;;;10.55;57.08
15674;BME280;7937;48.090;16.212;2023-05-08T10:15:24;98526.06;;;10.65;57.58
15674;BME280;7937;48.090;16.212;2023-05-08T10:18:28;98525.69;;;10.61;57.63
15674;BME280;7937;48.090;16.212;2023-05-08T10:21:35;98503.09;;;10.64;56.43
15674;BME280;7937;48.090;16.212;2023-05-08T10:24:40;98492.81;;;10.67;57.73
15674;BME280;7937;48.090;16.212;2023-05-08T10:30:59;98506.81;;;10.63;57.82
15674;BME280;7937;48.090;16.212;2023-05-08T10:34:03;98486.53;;;10.80;57.14
15674;BME280;7937;48.090;16.212;2023-05-08T10:37:09;98485.34;;;10.76;59.48
15674;BME280;7937;48.090;16.212;2023-05-08T10:40:12;98479.22;;;10.75;58.95
15674;BME280;7937;48.090;16.212;2023-05-08T10:43:18;98497.13;;;11.17;57.21
15674;BME280;7937;48.090;16.212;2023-05-08T10:46:32;98266.41;;;9.82;58.24
15674;BME280;7937;48.090;16.212;2023-05-08T10:49:46;98446.06;;;11.01;55.74
15674;BME280;7937;48.090;16.212;2023-05-08T10:52:56;98468.13;;;11.39;55.69
15674;BME280;7937;48.090;16.212;2023-05-08T10:56:01;98460.88;;;11.69;54.80
15674;BME280;7937;48.090;16.212;2023-05-08T10:59:04;98425.66;;;11.37;55.78
15674;BME280;7937;48.090;16.212;2023-05-08T11:02:07;98433.97;;;11.59;56.80
15674;BME280;7937;48.090;16.212;2023-05-08T11:05:17;98461.72;;;11.81;53.45
15674;BME280;7937;48.090;16.212;2023-05-08T11:08:24;98353.00;;;11.11;53.64
15674;BME280;7937;48.090;16.212;2023-05-08T11:11:31;98464.72;;;11.73;54.14
15674;BME280;7937;48.090;16.212;2023-05-08T11:14:41;98362.31;;;11.21;54.21
15674;BME280;7937;48.090;16.212;2023-05-08T11:17:53;98337.50;;;11.20;52.72
15674;BME280;7937;48.090;16.212;2023-05-08T11:21:03;98445.97;;;11.92;53.36
15674;BME280;7937;48.090;16.212;2023-05-08T11:24:09;98427.97;;;12.22;53.43
15674;BME280;7937;48.090;16.212;2023-05-08T11:27:13;98371.31;;;11.97;52.50
15674;BME280;7937;48.090;16.212;2023-05-08T11:33:28;98416.84;;;12.13;52.45
15674;BME280;7937;48.090;16.212;2023-05-08T11:36:35;98395.94;;;11.99;52.37
15674;BME280;7937;48.090;16.212;2023-05-08T11:39:37;98378.41;;;12.03;51.93
15674;BME280;7937;48.090;16.212;2023-05-08T11:42:40;98326.50;;;11.87;51.76
15674;BME280;7937;48.090;16.212;2023-05-08T11:45:42;98375.06;;;12.48;51.13
15674;BME280;7937;48.090;16.212;2023-05-08T11:48:44;98377.50;;;12.49;50.79
15674;BME280;7937;48.090;16.212;2023-05-08T11:51:51;98182.13;;;11.25;50.60
15674;BME280;7937;48.090;16.212;2023-05-08T11:55:09;98212.47;;;11.59;51.04
15674;BME280;7937;48.090;16.212;2023-05-08T11:58:12;98204.19;;;11.84;50.06
15674;BME280;7937;48.090;16.212;2023-05-08T12:01:21;98167.00;;;11.54;50.64
15674;BME280;7937;48.090;16.212;2023-05-08T12:04:23;98455.75;;;13.25;51.36
15674;BME280;7937;48.090;16.212;2023-05-08T12:07:26;98254.75;;;12.02;49.90
15674;BME280;7937;48.090;16.212;2023-05-08T12:10:28;98271.09;;;12.06;50.85
15674;BME280;7937;48.090;16.212;2023-05-08T12:13:30;98447.38;;;13.22;51.40
15674;BME280;7937;48.090;16.212;2023-05-08T12:21:46;98469.97;;;13.42;51.87
15674;BME280;7937;48.090;16.212;2023-05-08T12:24:49;98220.91;;;12.20;49.93
15674;BME280;7937;48.090;16.212;2023-05-08T12:27:52;98383.91;;;13.34;52.91
15674;BME280;7937;48.090;16.212;2023-05-08T12:30:55;97993.38;;;10.75;51.27
15674;BME280;7937;48.090;16.212;2023-05-08T12:33:58;98332.91;;;12.95;52.44
15674;BME280;7937;48.090;16.212;2023-05-08T12:37:02;98247.94;;;12.52;51.17
15674;BME280;7937;48.090;16.212;2023-05-08T12:40:07;98466.38;;;13.99;49.05
15674;BME280;7937;48.090;16.212;2023-05-08T12:43:33;98405.06;;;13.69;49.05
15674;BME280;7937;48.090;16.212;2023-05-08T12:46:45;98389.66;;;13.42;49.63
15674;BME280;7937;48.090;16.212;2023-05-08T12:49:47;98101.44;;;11.86;49.25
15674;BME280;7937;48.090;16.212;2023-05-08T12:52:51;98440.59;;;13.98;50.74
15674;BME280;7937;48.090;16.212;2023-05-08T12:55:55;98352.59;;;13.34;51.07
15674;BME280;7937;48.090;16.212;2023-05-08T12:58:58;98326.19;;;13.09;50.48
15674;BME280;7937;48.090;16.212;2023-05-08T13:02:00;98241.88;;;12.56;49.66
15674;BME280;7937;48.090;16.212;2023-05-08T13:05:03;98335.81;;;13.39;49.52
15674;BME280;7937;48.090;16.212;2023-05-08T13:08:08;98428.28;;;14.14;49.52
15674;BME280;7937;48.090;16.212;2023-05-08T13:11:12;98325.75;;;13.63;48.72
15674;BME280;7937;48.090;16.212;2023-05-08T13:14:14;98198.69;;;12.64;49.14
15674;BME280;7937;48.090;16.212;2023-05-08T13:17:17;98375.28;;;13.99;48.34
15674;BME280;7937;48.090;16.212;2023-05-08T13:20:20;98318.03;;;13.66;48.42
15674;BME280;7937;48.090;16.212;2023-05-08T13:23:22;98399.16;;;14.23;48.80
15674;BME280;7937;48.090;16.212;2023-05-08T13:26:25;98279.19;;;13.47;49.76
15674;BME280;7937;48.090;16.212;2023-05-08T13:29:27;98280.28;;;13.68;49.08
15674;BME280;7937;48.090;16.212;2023-05-08T13:32:30;98091.97;;;12.41;50.00
15674;BME280;7937;48.090;16.212;2023-05-08T13:35:33;98396.22;;;14.63;48.49
15674;BME280;7937;48.090;16.212;2023-05-08T13:38:35;98400.41;;;14.54;46.86
15674;BME280;7937;48.090;16.212;2023-05-08T13:41:37;98267.84;;;13.79;47.04
15674;BME280;7937;48.090;16.212;2023-05-08T13:44:39;98294.47;;;13.85;48.94
15674;BME280;7937;48.090;16.212;2023-05-08T13:47:42;98355.19;;;14.40;47.86
15674;BME280;7937;48.090;16.212;2023-05-08T13:50:44;98343.28;;;14.31;48.17
15674;BME280;7937;48.090;16.212;2023-05-08T13:53:46;98353.84;;;14.43;48.11
15674;BME280;7937;48.090;16.212;2023-05-08T13:56:48;98345.22;;;14.36;48.63
15674;BME280;7937;48.090;16.212;2023-05-08T13:59:51;98333.72;;;14.40;47.92
15674;BME280;7937;48.090;16.212;2023-05-08T14:02:53;98349.56;;;14.42;48.54
15674;BME280;7937;48.090;16.212;2023-05-08T14:05:55;98301.34;;;14.20;49.63
15674;BME280;7937;48.090;16.212;2023-05-08T14:08:58;98262.38;;;14.12;47.57
15674;BME280;7937;48.090;16.212;2023-05-08T14:12:00;98351.75;;;14.67;47.67
15674;BME280;7937;48.090;16.212;2023-05-08T14:15:04;98311.44;;;14.35;47.26
15674;BME280;7937;48.090;16.212;2023-05-08T14:18:07;98317.25;;;14.49;50.35
15674;BME280;7937;48.090;16.212;2023-05-08T14:21:09;98342.34;;;14.64;47.70
15674;BME280;7937;48.090;16.212;2023-05-08T14:24:11;98098.91;;;13.14;47.13
15674;BME280;7937;48.090;16.212;2023-05-08T14:27:13;98391.28;;;14.99;47.04
15674;BME280;7937;48.090;16.212;2023-05-08T14:30:17;98339.09;;;14.40;47.61
15674;BME280;7937;48.090;16.212;2023-05-08T14:33:19;98195.88;;;13.60;47.92
15674;BME280;7937;48.090;16.212;2023-05-08T14:36:22;98342.91;;;14.66;49.55
15674;BME280;7937;48.090;16.212;2023-05-08T14:39:24;98244.78;;;13.94;49.84
15674;BME280;7937;48.090;16.212;2023-05-08T14:42:26;98319.72;;;14.55;51.47
15674;BME280;7937;48.090;16.212;2023-05-08T14:45:29;98293.41;;;14.30;51.28
15674;BME280;7937;48.090;16.212;2023-05-08T14:48:31;98309.06;;;14.38;48.27
15674;BME280;7937;48.090;16.212;2023-05-08T14:51:34;98276.41;;;14.19;48.04
15674;BME280;7937;48.090;16.212;2023-05-08T14:54:36;98255.72;;;13.93;48.45
15674;BME280;7937;48.090;16.212;2023-05-08T14:57:38;98323.28;;;14.39;47.70
15674;BME280;7937;48.090;16.212;2023-05-08T15:00:42;98171.88;;;13.49;49.85
15674;BME280;7937;48.090;16.212;2023-05-08T15:03:45;98332.41;;;14.43;51.46
15674;BME280;7937;48.090;16.212;2023-05-08T15:06:54;98148.44;;;13.17;47.89
15674;BME280;7937;48.090;16.212;2023-05-08T15:09:56;98342.91;;;14.44;47.99
15674;BME280;7937;48.090;16.212;2023-05-08T15:12:59;98342.91;;;14.44;51.68
15674;BME280;7937;48.090;16.212;2023-05-08T15:16:01;98403.63;;;14.78;51.97
15674;BME280;7937;48.090;16.212;2023-05-08T15:19:03;98216.22;;;13.61;48.36
15674;BME280;7937;48.090;16.212;2023-05-08T15:22:06;98170.81;;;13.28;46.09
15674;BME280;7937;48.090;16.212;2023-05-08T15:25:08;98322.03;;;14.25;44.82
15674;BME280;7937;48.090;16.212;2023-05-08T15:28:11;98294.47;;;14.07;47.26
15674;BME280;7937;48.090;16.212;2023-05-08T15:31:13;98090.72;;;12.65;47.94
15674;BME280;7937;48.090;16.212;2023-05-08T15:34:16;98181.78;;;13.26;51.08
15674;BME280;7937;48.090;16.212;2023-05-08T15:37:18;98317.78;;;14.07;47.75
15674;BME280;7937;48.090;16.212;2023-05-08T15:40:20;98339.31;;;13.95;50.63
15674;BME280;7937;48.090;16.212;2023-05-08T15:43:23;98266.94;;;13.51;53.20
15674;BME280;7937;48.090;16.212;2023-05-08T15:46:25;98115.22;;;12.57;53.35
15674;BME280;7937;48.090;16.212;2023-05-08T15:49:27;98394.53;;;14.18;54.13
15674;BME280;7937;48.090;16.212;2023-05-08T15:52:29;98341.63;;;13.86;54.11
15674;BME280;7937;48.090;16.212;2023-05-08T15:55:31;98237.84;;;13.04;51.95
15674;BME280;7937;48.090;16.212;2023-05-08T15:58:34;98061.03;;;12.11;52.27
15674;BME280;7937;48.090;16.212;2023-05-08T16:01:37;98367.25;;;13.99;53.42
15674;BME280;7937;48.090;16.212;2023-05-08T16:04:42;98324.69;;;13.64;54.51
15674;BME280;7937;48.090;16.212;2023-05-08T16:07:45;98278.81;;;13.22;55.02
15674;BME280;7937;48.090;16.212;2023-05-08T16:10:49;98261.84;;;13.16;55.47
15674;BME280;7937;48.090;16.212;2023-05-08T16:13:55;98278.31;;;13.08;57.28
15674;BME280;7937;48.090;16.212;2023-05-08T16:16:59;98193.78;;;12.56;57.74
15674;BME280;7937;48.090;16.212;2023-05-08T16:20:03;98198.69;;;12.48;58.70
15674;BME280;7937;48.090;16.212;2023-05-08T16:23:05;98265.31;;;12.83;59.25
15674;BME280;7937;48.090;16.212;2023-05-08T16:26:08;98299.69;;;12.91;60.15
15674;BME280;7937;48.090;16.212;2023-05-08T16:29:10;98279.41;;;12.78;61.27
15674;BME280;7937;48.090;16.212;2023-05-08T16:32:12;98294.31;;;12.74;62.04
15674;BME280;7937;48.090;16.212;2023-05-08T16:35:14;98274.84;;;12.62;62.14
15674;BME280;7937;48.090;16.212;2023-05-08T16:38:17;98323.81;;;12.79;62.81
15674;BME280;7937;48.090;16.212;2023-05-08T16:41:20;98178.53;;;11.71;62.88
15674;BME280;7937;48.090;16.212;2023-05-08T16:44:24;98326.78;;;12.66;63.16
15674;BME280;7937;48.090;16.212;2023-05-08T16:47:26;98256.00;;;12.11;63.28
15674;BME280;7937;48.090;16.212;2023-05-08T16:50:28;98324.97;;;12.55;64.26
15674;BME280;7937;48.090;16.212;2023-05-08T16:53:31;98179.53;;;11.53;64.25
15674;BME280;7937;48.090;16.212;2023-05-08T16:56:33;98254.69;;;11.85;64.68
15674;BME280;7937;48.090;16.212;2023-05-08T16:59:36;98368.88;;;12.59;64.63